createdAt,value
2022-12-25T00:01:16.234Z,3.75
2022-12-25T00:06:11.051Z,2.60
2022-12-25T00:08:39.744Z,2.40
2022-12-25T00:11:11.301Z,3.22
2022-12-25T00:13:38.903Z,5.50
2022-12-25T00:16:13.025Z,6.25
2022-12-25T00:21:07.423Z,6.97
2022-12-25T00:23:35.736Z,8.60
2022-12-25T00:26:08.047Z,8.52
2022-12-25T00:28:36.411Z,7.70
2022-12-25T00:31:08.762Z,7.57
2022-12-25T00:33:37.662Z,7.80
2022-12-25T00:36:06.584Z,7.47
2022-12-25T00:38:35.633Z,7.15
2022-12-25T00:41:08.294Z,6.88
2022-12-25T00:43:36.942Z,5.65
2022-12-25T00:46:06.024Z,5.70
2022-12-25T00:48:34.818Z,5.13
2022-12-25T00:51:04.931Z,4.10
2022-12-25T00:53:33.174Z,4.75
2022-12-25T00:56:03.493Z,12.77
2022-12-25T00:58:32.304Z,18.08
2022-12-25T01:00:59.791Z,21.08
2022-12-25T01:03:27.368Z,20.45
2022-12-25T01:05:59.710Z,16.98
2022-12-25T01:08:29.825Z,11.70
2022-12-25T01:10:59.150Z,5.15
2022-12-25T01:13:26.753Z,5.55
2022-12-25T01:15:54.739Z,5.20
2022-12-25T01:18:23.279Z,3.67
2022-12-25T01:20:50.406Z,2.55
2022-12-25T01:23:17.579Z,3.47
2022-12-25T01:25:44.630Z,2.67
2022-12-25T01:28:11.701Z,2.08
2022-12-25T01:30:38.809Z,2.63
2022-12-25T01:33:05.864Z,2.58
2022-12-25T01:35:32.907Z,2.05
2022-12-25T01:38:00.054Z,1.95
2022-12-25T01:40:27.426Z,2.20
2022-12-25T01:42:54.424Z,1.90
2022-12-25T01:45:44.768Z,2.03
2022-12-25T01:48:18.899Z,1.63
2022-12-25T01:50:54.696Z,1.70
2022-12-25T01:53:22.304Z,1.95
2022-12-25T01:55:51.481Z,1.80
2022-12-25T01:58:18.909Z,1.73
2022-12-25T02:00:47.075Z,1.60
2022-12-25T02:03:14.608Z,1.65
2022-12-25T02:05:41.861Z,1.30
2022-12-25T02:08:11.431Z,1.70
2022-12-25T02:10:43.475Z,1.80
2022-12-25T02:13:13.493Z,1.73
2022-12-25T02:15:45.191Z,2.42
2022-12-25T02:18:30.500Z,2.20
2022-12-25T02:21:25.562Z,2.95
2022-12-25T02:24:07.561Z,2.47
2022-12-25T02:26:47.136Z,3.00
2022-12-25T02:29:35.272Z,2.40
2022-12-25T02:32:05.811Z,2.15
2022-12-25T02:34:44.465Z,2.00
2022-12-25T02:37:17.923Z,1.98
2022-12-25T02:40:00.260Z,2.10
2022-12-25T02:42:53.288Z,1.63
2022-12-25T02:45:52.170Z,1.48
2022-12-25T02:48:40.671Z,1.60
2022-12-25T02:51:30.280Z,1.70
2022-12-25T02:54:18.847Z,1.40
2022-12-25T02:57:07.577Z,1.73
2022-12-25T02:59:57.265Z,1.40
2022-12-25T03:02:43.916Z,1.30
2022-12-25T03:05:33.586Z,1.30
2022-12-25T03:08:05.054Z,1.10
2022-12-25T03:10:53.578Z,1.35
2022-12-25T03:13:23.886Z,1.30
2022-12-25T03:16:09.564Z,1.08
2022-12-25T03:18:36.982Z,1.00
2022-12-25T03:21:22.605Z,1.20
2022-12-25T03:24:13.052Z,1.40
2022-12-25T03:26:55.792Z,1.48
2022-12-25T03:29:47.974Z,1.27
2022-12-25T03:32:26.791Z,1.40
2022-12-25T03:35:19.997Z,1.50
2022-12-25T03:38:23.374Z,1.38
2022-12-25T03:41:19.228Z,1.30
2022-12-25T03:44:12.591Z,1.52
2022-12-25T03:47:06.407Z,1.13
2022-12-25T03:50:10.280Z,1.48
2022-12-25T03:52:57.943Z,1.67
2022-12-25T03:55:45.102Z,1.67
2022-12-25T03:58:42.661Z,1.67
2022-12-25T04:01:29.029Z,1.85
2022-12-25T04:04:16.206Z,1.67
2022-12-25T04:07:01.960Z,1.60
2022-12-25T04:09:47.607Z,1.50
2022-12-25T04:12:33.552Z,1.58
2022-12-25T04:15:19.298Z,1.60
2022-12-25T04:18:05.082Z,1.63
2022-12-25T04:20:50.682Z,1.70
2022-12-25T04:23:36.959Z,1.50
2022-12-25T04:26:22.585Z,1.55
2022-12-25T04:29:08.326Z,1.85
2022-12-25T04:31:54.782Z,1.40
2022-12-25T04:34:40.445Z,1.33
2022-12-25T04:37:07.444Z,1.40
2022-12-25T04:39:34.453Z,1.30
2022-12-25T04:42:01.604Z,1.40
2022-12-25T04:44:28.653Z,1.50
2022-12-25T04:46:55.749Z,1.30
2022-12-25T04:49:22.986Z,1.67
2022-12-25T04:51:50.130Z,1.48
2022-12-25T04:54:17.204Z,1.45
2022-12-25T04:56:46.038Z,1.17
2022-12-25T04:59:13.392Z,1.55
2022-12-25T05:01:41.289Z,1.85
2022-12-25T05:04:08.483Z,1.60
2022-12-25T05:06:35.544Z,1.52
2022-12-25T05:09:02.554Z,1.23
2022-12-25T05:11:29.762Z,1.38
2022-12-25T05:13:57.835Z,1.25
2022-12-25T05:16:26.659Z,1.35
2022-12-25T05:18:54.256Z,1.10
2022-12-25T05:21:21.356Z,1.02
2022-12-25T05:23:52.060Z,1.05
2022-12-25T05:26:22.543Z,1.20
2022-12-25T05:28:50.025Z,1.58
2022-12-25T05:31:17.956Z,1.20
2022-12-25T05:33:45.098Z,1.17
2022-12-25T05:36:13.245Z,1.60
2022-12-25T05:38:40.323Z,1.45
2022-12-25T05:41:07.795Z,1.50
2022-12-25T05:43:34.945Z,1.67
2022-12-25T05:46:10.325Z,1.60
2022-12-25T05:48:38.571Z,1.33
2022-12-25T05:51:08.005Z,1.60
2022-12-25T05:53:35.775Z,1.60
2022-12-25T05:56:05.107Z,1.30
2022-12-25T05:58:33.700Z,1.38
2022-12-25T06:01:01.061Z,1.45
2022-12-25T06:03:28.314Z,1.40
2022-12-25T06:05:55.686Z,1.40
2022-12-25T06:08:22.727Z,1.50
2022-12-25T06:10:49.842Z,1.70
2022-12-25T06:13:16.909Z,1.63
2022-12-25T06:15:43.989Z,1.48
2022-12-25T06:18:11.124Z,1.73
2022-12-25T06:20:41.566Z,1.80
2022-12-25T06:23:08.726Z,1.52
2022-12-25T06:25:39.601Z,1.40
2022-12-25T06:28:07.304Z,1.95
2022-12-25T06:30:34.411Z,1.55
2022-12-25T06:33:01.517Z,2.13
2022-12-25T06:35:28.731Z,1.65
2022-12-25T06:37:56.862Z,1.65
2022-12-25T06:40:23.946Z,1.50
2022-12-25T06:42:52.492Z,1.60
2022-12-25T06:45:19.545Z,1.70
2022-12-25T06:47:46.575Z,1.77
2022-12-25T06:50:13.701Z,1.75
2022-12-25T06:52:40.787Z,1.60
2022-12-25T06:55:08.194Z,1.70
2022-12-25T06:57:35.331Z,1.40
2022-12-25T07:00:02.547Z,1.33
2022-12-25T07:02:29.982Z,1.30
2022-12-25T07:04:57.325Z,1.25
2022-12-25T07:07:24.474Z,1.48
2022-12-25T07:09:51.529Z,1.33
2022-12-25T07:12:23.991Z,1.20
2022-12-25T07:14:54.973Z,1.10
2022-12-25T07:17:22.616Z,1.23
2022-12-25T07:19:50.455Z,1.23
2022-12-25T07:22:17.578Z,1.17
2022-12-25T07:24:44.622Z,1.00
2022-12-25T07:27:11.679Z,1.13
2022-12-25T07:29:38.925Z,1.45
2022-12-25T07:32:06.406Z,0.90
2022-12-25T07:34:33.648Z,1.13
2022-12-25T07:37:00.712Z,1.20
2022-12-25T07:39:28.542Z,1.15
2022-12-25T07:41:55.645Z,0.90
2022-12-25T07:44:22.790Z,0.88
2022-12-25T07:46:49.848Z,1.25
2022-12-25T07:49:16.857Z,1.13
2022-12-25T07:51:44.139Z,1.20
2022-12-25T07:54:11.188Z,1.05
2022-12-25T07:56:38.237Z,1.40
2022-12-25T07:59:05.348Z,1.35
2022-12-25T08:01:32.693Z,1.20
2022-12-25T08:04:01.832Z,1.20
2022-12-25T08:06:34.647Z,1.20
2022-12-25T08:09:19.573Z,1.05
2022-12-25T08:11:47.430Z,1.42
2022-12-25T08:14:14.655Z,1.20
2022-12-25T08:16:41.954Z,1.30
2022-12-25T08:19:09.712Z,1.08
2022-12-25T08:21:37.622Z,1.38
2022-12-25T08:24:05.025Z,1.23
2022-12-25T08:26:32.031Z,1.10
2022-12-25T08:28:59.240Z,1.15
2022-12-25T08:31:28.697Z,1.23
2022-12-25T08:33:57.433Z,1.30
2022-12-25T08:36:24.943Z,1.05
2022-12-25T08:38:55.578Z,1.05
2022-12-25T08:41:25.809Z,1.40
2022-12-25T08:43:52.962Z,1.20
2022-12-25T08:46:20.356Z,1.35
2022-12-25T08:48:48.888Z,1.38
2022-12-25T08:51:21.484Z,1.40
2022-12-25T08:53:50.112Z,1.25
2022-12-25T08:56:18.687Z,1.48
2022-12-25T08:58:46.177Z,1.60
2022-12-25T09:01:13.883Z,1.33
2022-12-25T09:03:41.695Z,1.60
2022-12-25T09:06:11.328Z,1.95
2022-12-25T09:08:45.892Z,1.52
2022-12-25T09:11:16.160Z,1.80
2022-12-25T09:13:43.409Z,1.77
2022-12-25T09:16:13.738Z,1.83
2022-12-25T09:18:41.484Z,1.85
2022-12-25T09:21:12.330Z,1.38
2022-12-25T09:23:40.139Z,1.52
2022-12-25T09:26:09.178Z,1.63
2022-12-25T09:28:36.291Z,1.60
2022-12-25T09:31:04.055Z,1.58
2022-12-25T09:33:31.349Z,1.17
2022-12-25T09:36:01.093Z,1.25
2022-12-25T09:38:28.712Z,1.80
2022-12-25T09:41:16.503Z,1.70
2022-12-25T09:43:50.444Z,1.88
2022-12-25T09:46:23.722Z,1.75
2022-12-25T09:49:08.076Z,1.70
2022-12-25T09:51:37.426Z,1.70
2022-12-25T09:54:16.490Z,1.80
2022-12-25T09:56:43.562Z,2.13
2022-12-25T09:59:21.674Z,2.00
2022-12-25T10:02:10.612Z,1.75
2022-12-25T10:04:55.135Z,2.00
2022-12-25T10:07:29.870Z,1.48
2022-12-25T10:10:18.449Z,1.70
2022-12-25T10:13:04.367Z,1.98
2022-12-25T10:15:49.761Z,1.70
2022-12-25T10:18:44.983Z,1.60
2022-12-25T10:21:18.537Z,1.80
2022-12-25T10:24:11.443Z,1.58
2022-12-25T10:26:38.734Z,1.67
2022-12-25T10:29:14.049Z,1.77
2022-12-25T10:31:44.732Z,1.50
2022-12-25T10:34:13.975Z,1.50
2022-12-25T10:36:43.987Z,1.80
2022-12-25T10:39:17.431Z,1.40
2022-12-25T10:42:21.634Z,1.88
2022-12-25T10:45:15.041Z,1.55
2022-12-25T10:47:42.905Z,2.20
2022-12-25T10:50:18.721Z,2.35
2022-12-25T10:53:05.490Z,1.80
2022-12-25T10:55:35.619Z,1.40
2022-12-25T10:58:02.857Z,1.75
2022-12-25T11:00:32.371Z,1.90
2022-12-25T11:03:00.171Z,2.10
2022-12-25T11:05:30.372Z,1.77
2022-12-25T11:08:00.427Z,1.70
2022-12-25T11:10:44.607Z,1.83
2022-12-25T11:15:50.676Z,2.03
2022-12-25T11:18:29.961Z,2.00
2022-12-25T11:21:03.295Z,2.22
2022-12-25T11:23:33.168Z,2.30
2022-12-25T11:26:08.355Z,3.13
2022-12-25T11:28:37.995Z,3.83
2022-12-25T11:31:23.940Z,3.70
2022-12-25T11:33:59.424Z,3.80
2022-12-25T11:36:47.298Z,3.50
2022-12-25T11:39:36.484Z,3.30
2022-12-25T11:42:21.148Z,3.40
2022-12-25T11:45:01.649Z,2.53
2022-12-25T11:47:36.650Z,3.15
2022-12-25T11:50:07.658Z,2.90
2022-12-25T11:52:38.022Z,2.85
2022-12-25T11:55:15.459Z,3.22
2022-12-25T11:57:46.250Z,3.90
2022-12-25T12:00:15.955Z,3.67
2022-12-25T12:02:50.732Z,2.83
2022-12-25T12:05:46.333Z,2.65
2022-12-25T12:08:14.685Z,3.20
2022-12-25T12:11:30.953Z,3.38
2022-12-25T12:14:49.093Z,2.78
2022-12-25T12:17:18.706Z,2.38
2022-12-25T12:19:46.230Z,2.20
2022-12-25T12:22:27.633Z,2.00
2022-12-25T12:25:06.434Z,1.83
2022-12-25T12:27:37.919Z,2.25
2022-12-25T12:30:06.486Z,2.10
2022-12-25T12:32:44.933Z,2.00
2022-12-25T12:35:22.961Z,1.92
2022-12-25T12:37:56.353Z,1.92
2022-12-25T12:40:39.024Z,2.20
2022-12-25T12:43:23.393Z,2.20
2022-12-25T12:45:56.912Z,2.38
2022-12-25T12:48:29.710Z,2.22
2022-12-25T12:51:05.098Z,2.30
2022-12-25T12:53:34.102Z,2.10
2022-12-25T12:56:14.259Z,2.15
2022-12-25T12:58:48.652Z,1.90
2022-12-25T13:01:27.815Z,2.13
2022-12-25T13:04:31.861Z,2.58
2022-12-25T13:07:22.669Z,2.38
2022-12-25T13:10:02.924Z,2.20
2022-12-25T13:12:30.091Z,2.55
2022-12-25T13:14:57.344Z,2.20
2022-12-25T13:17:27.229Z,2.08
2022-12-25T13:20:00.050Z,2.65
2022-12-25T13:22:33.267Z,2.08
2022-12-25T13:25:02.883Z,2.40
2022-12-25T13:27:32.220Z,2.55
2022-12-25T13:29:59.557Z,2.70
2022-12-25T13:32:32.535Z,2.70
2022-12-25T13:35:00.575Z,2.77
2022-12-25T13:37:30.283Z,1.95
2022-12-25T13:39:59.491Z,2.70
2022-12-25T13:42:32.863Z,2.40
2022-12-25T13:45:02.640Z,2.58
2022-12-25T13:47:34.442Z,2.70
2022-12-25T13:50:23.154Z,2.25
2022-12-25T13:52:51.694Z,2.40
2022-12-25T13:55:22.008Z,2.50
2022-12-25T13:58:00.487Z,1.88
2022-12-25T14:00:43.592Z,2.53
2022-12-25T14:03:18.946Z,2.25
2022-12-25T14:05:46.364Z,2.35
2022-12-25T14:08:17.140Z,2.65
2022-12-25T14:10:46.634Z,2.15
2022-12-25T14:13:15.556Z,2.10
2022-12-25T14:15:45.252Z,2.33
2022-12-25T14:18:17.847Z,2.08
2022-12-25T14:21:04.168Z,2.05
2022-12-25T14:23:46.166Z,2.30
2022-12-25T14:26:22.102Z,2.20
2022-12-25T14:29:17.535Z,2.45
2022-12-25T14:31:47.573Z,2.50
2022-12-25T14:34:25.294Z,2.42
2022-12-25T14:36:53.623Z,2.75
2022-12-25T14:39:37.549Z,2.45
2022-12-25T14:42:35.716Z,2.65
2022-12-25T14:45:27.866Z,3.45
2022-12-25T14:48:22.927Z,2.40
2022-12-25T14:51:04.472Z,2.92
2022-12-25T14:53:48.934Z,3.22
2022-12-25T14:56:24.413Z,3.45
2022-12-25T14:58:57.541Z,2.72
2022-12-25T15:01:34.752Z,3.35
2022-12-25T15:04:16.128Z,2.85
2022-12-25T15:06:57.040Z,2.95
2022-12-25T15:09:24.552Z,2.20
2022-12-25T15:11:56.121Z,2.78
2022-12-25T15:14:24.546Z,2.70
2022-12-25T15:16:54.263Z,2.58
2022-12-25T15:19:27.282Z,2.38
2022-12-25T15:21:57.293Z,2.50
2022-12-25T15:24:24.428Z,2.90
2022-12-25T15:26:53.777Z,2.20
2022-12-25T15:29:44.564Z,2.53
2022-12-25T15:32:16.084Z,3.17
2022-12-25T15:34:43.175Z,2.85
2022-12-25T15:37:10.202Z,2.88
2022-12-25T15:39:37.220Z,2.85
2022-12-25T15:42:13.463Z,4.65
2022-12-25T15:44:41.893Z,3.65
2022-12-25T15:47:13.731Z,2.85
2022-12-25T15:49:41.764Z,2.83
2022-12-25T15:52:13.167Z,2.70
2022-12-25T15:54:40.312Z,3.22
2022-12-25T15:57:12.251Z,4.72
2022-12-25T15:59:39.307Z,3.28
2022-12-25T16:02:15.950Z,4.05
2022-12-25T16:04:43.892Z,3.10
2022-12-25T16:07:19.362Z,2.65
2022-12-25T16:09:46.766Z,2.90
2022-12-25T16:12:13.857Z,3.17
2022-12-25T16:14:41.260Z,2.70
2022-12-25T16:17:11.676Z,2.70
2022-12-25T16:19:38.763Z,3.25
2022-12-25T16:22:14.168Z,3.10
2022-12-25T16:24:41.354Z,2.60
2022-12-25T16:27:08.451Z,2.80
2022-12-25T16:29:35.568Z,3.28
2022-12-25T16:32:02.756Z,3.50
2022-12-25T16:34:29.810Z,2.60
2022-12-25T16:36:56.881Z,2.90
2022-12-25T16:39:24.181Z,2.55
2022-12-25T16:41:51.199Z,3.00
2022-12-25T16:44:18.347Z,2.85
2022-12-25T16:46:45.524Z,2.60
2022-12-25T16:49:12.601Z,2.50
2022-12-25T16:51:39.925Z,2.83
2022-12-25T16:54:07.127Z,2.88
2022-12-25T16:56:36.807Z,3.40
2022-12-25T16:59:03.950Z,2.78
2022-12-25T17:01:31.146Z,3.10
2022-12-25T17:04:03.869Z,2.78
2022-12-25T17:06:30.965Z,3.08
2022-12-25T17:09:00.224Z,2.67
2022-12-25T17:11:30.294Z,2.70
2022-12-25T17:14:00.126Z,2.55
2022-12-25T17:16:29.291Z,2.60
2022-12-25T17:18:59.238Z,3.42
2022-12-25T17:21:27.886Z,2.80
2022-12-25T17:24:01.651Z,2.97
2022-12-25T17:26:30.664Z,2.72
2022-12-25T17:28:57.778Z,2.90
2022-12-25T17:31:24.961Z,3.58
2022-12-25T17:33:52.304Z,3.33
2022-12-25T17:36:21.351Z,3.20
2022-12-25T17:38:49.363Z,3.05
2022-12-25T17:41:18.503Z,3.17
2022-12-25T17:43:46.530Z,2.95
2022-12-25T17:46:17.038Z,2.80
2022-12-25T17:48:45.123Z,2.83
2022-12-25T17:51:14.609Z,2.55
2022-12-25T17:53:44.561Z,2.63
2022-12-25T17:56:12.770Z,2.78
2022-12-25T17:58:39.989Z,2.75
2022-12-25T18:01:07.947Z,2.33
2022-12-25T18:03:36.925Z,2.60
2022-12-25T18:06:05.454Z,3.40
2022-12-25T18:08:38.984Z,3.17
2022-12-25T18:11:09.831Z,3.05
2022-12-25T18:13:37.488Z,3.63
2022-12-25T18:16:07.595Z,3.10
2022-12-25T18:18:35.406Z,3.58
2022-12-25T18:21:02.634Z,3.40
2022-12-25T18:23:30.228Z,3.22
2022-12-25T18:26:00.758Z,2.55
2022-12-25T18:28:27.805Z,3.33
2022-12-25T18:30:54.853Z,2.80
2022-12-25T18:33:21.870Z,3.38
2022-12-25T18:35:49.015Z,3.35
2022-12-25T18:38:16.114Z,3.55
2022-12-25T18:40:44.930Z,3.90
2022-12-25T18:43:13.025Z,3.67
2022-12-25T18:45:40.664Z,4.30
2022-12-25T18:48:07.879Z,3.58
2022-12-25T18:50:37.010Z,3.80
2022-12-25T18:53:05.070Z,2.92
2022-12-25T18:55:32.424Z,3.28
2022-12-25T18:57:59.717Z,3.58
2022-12-25T19:00:28.210Z,3.60
2022-12-25T19:02:59.459Z,3.83
2022-12-25T19:05:26.877Z,3.92
2022-12-25T19:07:53.872Z,3.15
2022-12-25T19:10:21.001Z,2.95
2022-12-25T19:12:48.164Z,2.88
2022-12-25T19:15:15.332Z,3.58
2022-12-25T19:17:42.373Z,3.13
2022-12-25T19:20:09.970Z,3.13
2022-12-25T19:22:37.161Z,3.30
2022-12-25T19:25:05.123Z,2.88
2022-12-25T19:27:32.258Z,3.20
2022-12-25T19:29:59.309Z,2.60
2022-12-25T19:32:26.313Z,2.30
2022-12-25T19:34:53.402Z,3.15
2022-12-25T19:37:20.391Z,3.75
2022-12-25T19:39:47.659Z,4.53
2022-12-25T19:42:16.754Z,3.75
2022-12-25T19:44:44.341Z,3.10
2022-12-25T19:47:11.566Z,3.17
2022-12-25T19:49:40.779Z,2.80
2022-12-25T19:52:07.974Z,2.60
2022-12-25T19:54:35.040Z,2.90
2022-12-25T19:57:02.115Z,2.28
2022-12-25T19:59:29.187Z,2.13
2022-12-25T20:01:56.505Z,2.42
2022-12-25T20:04:23.647Z,3.03
2022-12-25T20:06:50.777Z,3.13
2022-12-25T20:09:21.490Z,3.13
2022-12-25T20:11:48.928Z,3.42
2022-12-25T20:14:16.792Z,3.42
2022-12-25T20:16:44.729Z,3.25
2022-12-25T20:19:13.226Z,2.58
2022-12-25T20:21:40.599Z,1.90
2022-12-25T20:24:10.350Z,2.50
2022-12-25T20:26:39.559Z,2.30
2022-12-25T20:29:07.020Z,2.13
2022-12-25T20:31:35.241Z,2.47
2022-12-25T20:34:08.832Z,2.05
2022-12-25T20:36:38.010Z,2.13
2022-12-25T20:39:10.069Z,2.25
2022-12-25T20:41:38.268Z,1.92
2022-12-25T20:44:06.856Z,2.13
2022-12-25T20:46:34.047Z,2.17
2022-12-25T20:49:02.628Z,2.10
2022-12-25T20:51:29.730Z,2.03
2022-12-25T20:53:57.047Z,1.70
2022-12-25T20:56:26.356Z,2.17
2022-12-25T20:58:58.255Z,1.90
2022-12-25T21:01:26.724Z,2.40
2022-12-25T21:03:54.772Z,3.08
2022-12-25T21:06:23.183Z,3.30
2022-12-25T21:08:50.286Z,2.83
2022-12-25T21:11:18.380Z,2.67
2022-12-25T21:13:46.522Z,3.47
2022-12-25T21:16:17.232Z,2.85
2022-12-25T21:18:44.510Z,2.78
2022-12-25T21:21:11.959Z,2.58
2022-12-25T21:23:40.781Z,2.80
2022-12-25T21:26:21.043Z,3.05
2022-12-25T21:28:49.771Z,2.60
2022-12-25T21:31:18.059Z,2.25
2022-12-25T21:33:55.265Z,2.53
2022-12-25T21:36:28.106Z,2.50
2022-12-25T21:38:57.881Z,2.55
2022-12-25T21:41:26.063Z,2.72
2022-12-25T21:43:53.263Z,2.70
2022-12-25T21:46:20.717Z,2.40
2022-12-25T21:48:48.130Z,2.80
2022-12-25T21:51:53.610Z,2.65
2022-12-25T21:54:23.086Z,2.28
2022-12-25T21:56:50.535Z,2.22
2022-12-25T21:59:22.403Z,2.65
2022-12-25T22:01:51.114Z,2.70
2022-12-25T22:04:21.185Z,2.40
2022-12-25T22:07:07.178Z,2.58
2022-12-25T22:09:34.265Z,3.13
2022-12-25T22:12:20.200Z,2.42
2022-12-25T22:15:02.925Z,2.45
2022-12-25T22:17:54.559Z,2.95
2022-12-25T22:20:26.075Z,2.65
2022-12-25T22:22:53.902Z,2.45
2022-12-25T22:25:21.509Z,2.47
2022-12-25T22:27:49.318Z,2.53
2022-12-25T22:30:25.355Z,2.63
2022-12-25T22:32:53.047Z,2.63
2022-12-25T22:35:23.797Z,2.40
2022-12-25T22:37:51.328Z,2.35
2022-12-25T22:40:20.722Z,2.65
2022-12-25T22:42:48.142Z,2.08
2022-12-25T22:45:15.394Z,2.10
2022-12-25T22:47:42.687Z,1.90
2022-12-25T22:50:11.298Z,2.13
2022-12-25T22:52:38.968Z,1.90
2022-12-25T22:55:07.962Z,1.75
2022-12-25T22:57:35.309Z,2.10
2022-12-25T23:00:03.016Z,2.38
2022-12-25T23:02:30.227Z,2.13
2022-12-25T23:04:57.510Z,2.10
2022-12-25T23:07:24.575Z,2.05
2022-12-25T23:09:51.663Z,2.67
2022-12-25T23:12:37.041Z,2.90
2022-12-25T23:15:04.392Z,2.90
2022-12-25T23:17:50.144Z,2.53
2022-12-25T23:20:35.675Z,2.95
2022-12-25T23:23:21.512Z,2.25
2022-12-25T23:26:07.020Z,3.13
2022-12-25T23:28:53.717Z,2.80
2022-12-25T23:31:24.786Z,2.78
2022-12-25T23:33:51.834Z,1.95
2022-12-25T23:36:19.022Z,2.05
2022-12-25T23:38:46.025Z,2.15
2022-12-25T23:41:13.121Z,2.45
2022-12-25T23:43:40.169Z,2.33
2022-12-25T23:46:07.303Z,2.20
2022-12-25T23:48:34.382Z,2.28
2022-12-25T23:51:06.124Z,2.50
2022-12-25T23:53:34.091Z,2.42
2022-12-25T23:56:01.988Z,1.90
2022-12-25T23:58:30.707Z,2.03
